Time;durP1;ratioP1;P1;durP2;ratioP2;P2;SDS_P1;SDS_P2;PMS_P1;PMS_P2;Temp;Humidity;BMP_temperature;BMP_pressure;BME280_temperature;BME280_humidity;BME280_pressure;Samples;Min_cycle;Max_cycle;Signal;HPM_P1;HPM_P2
2023/02/05 00:01:33;;;;;;;14.70;8.00;;;;;;;0.30;76.91;99423.36;79142;1297;3012806;-65
2023/02/05 00:04:01;;;;;;;13.90;7.60;;;;;;;0.20;77.40;99423.19;78012;1300;3050007;-62
2023/02/05 00:06:28;;;;;;;15.00;8.20;;;;;;;0.07;78.03;99422.41;79172;1316;3013086;-65
2023/02/05 00:08:56;;;;;;;14.90;9.00;;;;;;;-0.04;78.70;99424.16;79100;1297;3015994;-63
2023/02/05 00:11:25;;;;;;;14.00;8.10;;;;;;;-0.07;79.00;99419.05;77985;1300;3051305;-63
2023/02/05 00:13:52;;;;;;;13.60;8.10;;;;;;;-0.02;79.01;99419.14;79176;1298;3016249;-65
2023/02/05 00:16:20;;;;;;;11.60;7.60;;;;;;;0.01;79.37;99419.42;79148;1296;3011867;-62
2023/02/05 00:18:48;;;;;;;12.80;7.80;;;;;;;-0.07;78.82;99419.73;77976;1300;3050405;-64
2023/02/05 00:21:15;;;;;;;14.80;8.20;;;;;;;-0.15;79.44;99420.71;79192;1300;3013672;-65
2023/02/05 00:23:42;;;;;;;13.90;8.00;;;;;;;-0.21;79.88;99419.81;79186;1300;3011888;-66
2023/02/05 00:26:12;;;;;;;11.40;7.80;;;;;;;-0.25;79.96;99420.21;77924;1297;3050912;-67
2023/02/05 00:28:39;;;;;;;14.80;7.70;;;;;;;-0.32;80.44;99422.74;79178;1297;3011907;-62
2023/02/05 00:31:17;;;;;;;14.60;7.60;;;;;;;-0.29;80.68;99420.11;79256;1298;3011650;-64
2023/02/05 00:33:45;;;;;;;9.40;5.30;;;;;;;-0.27;80.98;99418.02;77961;1297;3049195;-64
2023/02/05 00:36:12;;;;;;;13.60;7.10;;;;;;;0.35;79.55;99415.32;79225;1300;3021275;-65
2023/02/05 00:38:39;;;;;;;13.20;6.90;;;;;;;1.09;76.59;99417.21;79177;1300;3011642;-66
2023/02/05 00:41:07;;;;;;;14.20;7.70;;;;;;;1.28;75.17;99420.94;78145;1297;3026118;-65
2023/02/05 00:43:34;;;;;;;14.10;7.50;;;;;;;1.36;75.16;99428.52;79208;1297;3014091;-67
2023/02/05 00:46:01;;;;;;;15.10;8.80;;;;;;;1.13;74.75;99426.61;79135;1298;3013598;-63
2023/02/05 00:48:29;;;;;;;17.10;8.40;;;;;;;1.03;75.53;99424.95;78082;1301;3049756;-65
2023/02/05 00:50:55;;;;;;;14.80;7.80;;;;;;;0.86;75.69;99427.04;79334;1300;3011547;-64
2023/02/05 00:53:23;;;;;;;15.10;8.80;;;;;;;0.77;76.21;99431.02;79252;1298;3011683;-66
2023/02/05 00:55:51;;;;;;;19.00;9.10;;;;;;;0.70;76.25;99430.81;78060;1297;3026099;-65
2023/02/05 00:58:18;;;;;;;17.80;9.10;;;;;;;0.52;76.78;99431.19;79166;1297;3013596;-66
2023/02/05 01:00:44;;;;;;;16.90;9.10;;;;;;;0.45;77.49;99428.23;79255;1300;3011651;-66
2023/02/05 01:03:12;;;;;;;16.30;9.30;;;;;;;0.42;77.34;99430.35;78057;1300;3028141;-63
2023/02/05 01:05:39;;;;;;;15.90;8.80;;;;;;;0.35;77.93;99428.76;79170;1302;3013265;-63
2023/02/05 01:08:06;;;;;;;18.80;9.20;;;;;;;0.35;78.26;99429.29;79182;1298;3013026;-64
2023/02/05 01:10:36;;;;;;;19.00;9.70;;;;;;;0.35;78.18;99429.63;78000;1297;3051598;-64
2023/02/05 01:13:04;;;;;;;18.90;9.30;;;;;;;0.37;78.30;99430.64;79151;1297;3014183;-64
2023/02/05 01:15:31;;;;;;;18.70;9.80;;;;;;;0.30;78.21;99435.77;79165;1296;3011773;-62
2023/02/05 01:17:59;;;;;;;19.00;9.80;;;;;;;0.25;78.63;99431.71;78146;1300;3050155;-64
2023/02/05 01:20:26;;;;;;;15.60;9.10;;;;;;;0.32;78.82;99437.77;79209;1300;3014710;-61
2023/02/05 01:22:52;;;;;;;16.90;8.40;;;;;;;0.38;78.76;99440.08;79172;1300;3011733;-62
2023/02/05 01:25:20;;;;;;;14.30;7.60;;;;;;;0.94;77.45;99441.86;77939;1298;3051089;-62
2023/02/05 01:27:47;;;;;;;13.60;7.60;;;;;;;1.73;74.85;99437.60;79205;1297;3018965;-64
2023/02/05 01:30:14;;;;;;;15.90;9.30;;;;;;;1.89;73.12;99435.84;79245;1300;3011621;-64
2023/02/05 01:32:42;;;;;;;20.50;9.90;;;;;;;1.87;73.81;99435.57;77827;1300;3030355;-64
2023/02/05 01:35:08;;;;;;;20.90;11.00;;;;;;;1.79;74.23;99434.05;79144;1300;3015773;-65
2023/02/05 01:37:35;;;;;;;22.60;11.30;;;;;;;1.74;74.48;99434.17;79100;1302;3012967;-64
2023/02/05 01:40:03;;;;;;;22.10;11.10;;;;;;;1.66;74.46;99439.38;78010;1298;3026038;-64
2023/02/05 01:42:30;;;;;;;22.60;12.40;;;;;;;1.44;74.72;99440.90;79267;1298;3012570;-63
2023/02/05 01:45:23;;;;;;;21.60;11.50;;;;;;;1.29;75.29;99445.77;79156;1297;3011777;-61
2023/02/05 01:48:02;;;;;;;23.40;11.30;;;;;;;1.13;76.01;99445.09;78002;1300;3050754;-65
2023/02/05 01:50:41;;;;;;;24.60;11.60;;;;;;;0.98;76.83;99443.69;77868;1300;3053145;-63
2023/02/05 01:53:23;;;;;;;23.70;12.30;;;;;;;1.07;76.92;99444.02;77846;1302;3052470;-64
2023/02/05 01:55:57;;;;;;;23.80;11.80;;;;;;;1.02;76.59;99442.73;77878;1300;3069530;-63
2023/02/05 01:58:30;;;;;;;23.80;11.40;;;;;;;0.92;76.55;99443.65;78430;1297;3011660;-64
2023/02/05 02:00:56;;;;;;;22.90;11.80;;;;;;;0.85;77.25;99445.86;79053;1297;3012992;-63
2023/02/05 02:03:26;;;;;;;25.70;12.10;;;;;;;0.86;77.61;99450.16;78521;1298;3011737;-63
2023/02/05 02:05:56;;;;;;;19.90;11.30;;;;;;;0.91;77.64;99443.67;79046;1297;3014076;-63
2023/02/05 02:08:25;;;;;;;22.20;10.00;;;;;;;0.88;77.51;99449.58;77864;1300;3050354;-63
2023/02/05 02:10:52;;;;;;;18.50;10.10;;;;;;;0.92;77.61;99450.52;79118;1297;3013001;-63
2023/02/05 02:13:19;;;;;;;18.90;10.60;;;;;;;0.90;77.31;99453.85;79124;1299;3011629;-65
2023/02/05 02:15:48;;;;;;;20.60;10.20;;;;;;;0.89;77.43;99457.31;77922;1298;3051531;-65
2023/02/05 02:18:26;;;;;;;18.90;9.80;;;;;;;0.94;77.65;99455.68;79152;1296;3011880;-68
2023/02/05 02:21:06;;;;;;;18.20;9.40;;;;;;;0.98;77.39;99458.16;77772;1303;3050102;-65
2023/02/05 02:23:53;;;;;;;15.70;9.70;;;;;;;1.06;77.22;99456.80;77975;1302;3054047;-66
2023/02/05 02:26:52;;;;;;;16.30;9.40;;;;;;;1.06;77.18;99460.09;77974;1303;3050363;-64
2023/02/05 02:29:41;;;;;;;20.00;10.10;;;;;;;1.06;76.96;99464.05;77825;1300;3053374;-66
2023/02/05 02:32:26;;;;;;;16.10;9.70;;;;;;;1.06;76.95;99463.35;77956;1299;3052433;-65
2023/02/05 02:35:04;;;;;;;19.80;9.90;;;;;;;1.09;77.19;99465.01;77970;1297;3069169;-63
2023/02/05 02:37:36;;;;;;;16.60;9.30;;;;;;;1.13;76.96;99463.39;77906;1303;3051824;-65
2023/02/05 02:40:10;;;;;;;16.90;8.40;;;;;;;1.16;76.63;99463.84;79169;1297;3012022;-71
2023/02/05 02:42:45;;;;;;;14.20;7.80;;;;;;;1.27;76.45;99461.33;77927;1298;3049512;-65
2023/02/05 02:45:14;;;;;;;18.00;7.40;;;;;;;1.33;75.92;99463.60;77795;1297;3053628;-64
2023/02/05 02:47:46;;;;;;;13.70;6.90;;;;;;;1.22;75.43;99462.84;79043;1303;3014118;-66
2023/02/05 02:50:20;;;;;;;16.20;8.30;;;;;;;1.21;75.80;99463.52;77968;1300;3052874;-64
2023/02/05 02:52:46;;;;;;;15.00;7.10;;;;;;;1.25;75.76;99464.14;79553;1297;3011431;-64
2023/02/05 02:55:14;;;;;;;15.80;7.40;;;;;;;1.23;75.38;99466.80;77977;1300;3051869;-60
2023/02/05 02:57:44;;;;;;;15.30;7.80;;;;;;;1.19;75.75;99464.79;79061;1297;3013039;-68
2023/02/05 03:00:24;;;;;;;17.40;7.90;;;;;;;1.14;75.54;99462.83;78591;1298;3011849;-67
2023/02/05 03:02:54;;;;;;;14.40;7.80;;;;;;;1.14;75.48;99465.41;77941;1300;3054571;-66
2023/02/05 03:05:21;;;;;;;13.40;6.60;;;;;;;1.12;75.66;99467.17;79232;1301;3013595;-70
2023/02/05 03:07:51;;;;;;;13.70;7.40;;;;;;;1.12;75.71;99465.45;79183;1300;3011736;-68
2023/02/05 03:10:25;;;;;;;14.80;6.80;;;;;;;1.07;75.23;99466.77;77990;1300;3068963;-71
2023/02/05 03:12:55;;;;;;;13.20;7.00;;;;;;;1.10;75.41;99469.13;78564;1297;3013799;-67
2023/02/05 03:15:22;;;;;;;14.00;6.20;;;;;;;1.15;74.97;99471.08;79269;1297;3013127;-62
2023/02/05 03:17:51;;;;;;;12.10;6.90;;;;;;;1.10;74.96;99470.00;79140;1296;3011495;-66
2023/02/05 03:20:22;;;;;;;11.80;6.00;;;;;;;1.09;74.74;99476.06;77999;1300;3054338;-63
2023/02/05 03:22:49;;;;;;;14.30;7.50;;;;;;;1.04;75.05;99476.85;79304;1298;3011624;-66
2023/02/05 03:25:18;;;;;;;15.20;6.60;;;;;;;1.01;75.50;99479.66;77798;1300;3028754;-65
2023/02/05 03:27:45;;;;;;;14.10;7.50;;;;;;;1.02;75.38;99481.89;79228;1297;3013209;-69
2023/02/05 03:30:12;;;;;;;12.50;6.90;;;;;;;1.05;75.60;99481.84;79227;1300;3011753;-66
2023/02/05 03:33:20;;;;;;;12.70;6.60;;;;;;;1.04;75.48;99485.28;77847;1302;3056965;-64
2023/02/05 03:36:04;;;;;;;12.80;6.30;;;;;;;1.06;75.37;99486.82;77824;1297;3049031;-65
2023/02/05 03:38:38;;;;;;;11.10;5.60;;;;;;;1.03;75.64;99483.79;77984;1297;3053418;-62
2023/02/05 03:41:54;;;;;;;12.40;6.00;;;;;;;1.07;75.56;99483.84;78650;1300;3011768;-64
2023/02/05 03:44:27;;;;;;;12.50;5.80;;;;;;;1.04;75.48;99488.41;77899;1303;3050268;-63
2023/02/05 03:47:00;;;;;;;10.70;5.90;;;;;;;1.08;75.42;99491.26;77906;1300;3053914;-63
2023/02/05 03:49:51;;;;;;;11.20;5.80;;;;;;;1.11;74.99;99497.06;79140;1302;3013246;-64
2023/02/05 03:52:23;;;;;;;11.30;6.00;;;;;;;1.01;75.11;99498.66;77830;1297;3069189;-64
2023/02/05 03:54:55;;;;;;;11.40;6.30;;;;;;;0.97;75.61;99500.98;79270;1296;3011652;-66
2023/02/05 03:57:30;;;;;;;12.90;6.10;;;;;;;1.06;75.41;99501.13;78064;1297;3055926;-64
2023/02/05 03:59:57;;;;;;;9.70;4.80;;;;;;;1.04;74.95;99500.65;79254;1296;3012015;-62
2023/02/05 04:02:27;;;;;;;9.70;5.80;;;;;;;1.10;74.86;99498.11;77829;1303;3053310;-66
2023/02/05 04:04:54;;;;;;;11.50;5.30;;;;;;;1.07;74.86;99498.52;79110;1298;3013738;-67
2023/02/05 04:07:21;;;;;;;11.90;5.60;;;;;;;1.09;74.91;99500.36;79181;1298;3011651;-68
2023/02/05 04:09:49;;;;;;;13.10;6.10;;;;;;;1.07;75.00;99499.90;78020;1300;3070041;-63
2023/02/05 04:12:15;;;;;;;13.70;5.40;;;;;;;1.09;74.71;99502.97;79152;1302;3013141;-67
2023/02/05 04:14:42;;;;;;;11.30;5.50;;;;;;;1.10;74.91;99505.34;79159;1296;3011475;-64
2023/02/05 04:17:12;;;;;;;9.20;5.20;;;;;;;1.17;74.86;99506.75;77942;1300;3052634;-60
2023/02/05 04:19:40;;;;;;;14.40;4.90;;;;;;;1.75;73.88;99509.06;79153;1297;3013251;-64
2023/02/05 04:22:10;;;;;;;6.90;3.90;;;;;;;2.54;70.81;99509.32;78650;1302;3011764;-64
2023/02/05 04:24:38;;;;;;;9.10;4.80;;;;;;;2.86;70.33;99515.22;79290;1300;3013194;-65
2023/02/05 04:27:05;;;;;;;11.60;5.00;;;;;;;2.80;69.73;99511.72;79258;1297;3011990;-64
2023/02/05 04:29:33;;;;;;;10.00;5.50;;;;;;;2.62;69.61;99510.15;78035;1300;3057198;-66
2023/02/05 04:32:00;;;;;;;10.70;5.10;;;;;;;2.43;69.82;99517.41;79204;1300;3013476;-65
2023/02/05 04:34:27;;;;;;;11.80;5.50;;;;;;;2.21;70.07;99513.82;79124;1297;3011851;-64
2023/02/05 04:36:56;;;;;;;9.20;5.10;;;;;;;2.02;70.89;99517.77;77972;1303;3052407;-69
2023/02/05 04:39:24;;;;;;;10.10;5.50;;;;;;;1.95;71.30;99521.38;79132;1301;3014769;-65
2023/02/05 04:41:50;;;;;;;10.90;5.70;;;;;;;1.84;71.31;99520.95;79140;1300;3013375;-66
2023/02/05 04:44:18;;;;;;;13.20;5.50;;;;;;;1.70;71.57;99522.66;77948;1300;3057150;-62
2023/02/05 04:46:44;;;;;;;10.40;5.00;;;;;;;1.63;72.00;99523.86;79161;1297;3013061;-67
2023/02/05 04:49:11;;;;;;;10.90;5.00;;;;;;;1.63;72.05;99527.48;79134;1297;3013376;-63
2023/02/05 04:51:39;;;;;;;11.00;6.30;;;;;;;1.51;71.70;99530.00;77938;1300;3028764;-68
2023/02/05 04:54:06;;;;;;;11.00;5.70;;;;;;;1.44;72.43;99533.78;79272;1300;3012876;-66
2023/02/05 04:56:32;;;;;;;9.80;5.30;;;;;;;1.37;72.50;99537.92;79148;1297;3012368;-65
2023/02/05 04:59:01;;;;;;;13.30;5.50;;;;;;;1.37;72.80;99543.10;77929;1300;3028775;-60
2023/02/05 05:01:27;;;;;;;9.80;5.70;;;;;;;1.38;72.64;99546.70;79205;1298;3013625;-61
2023/02/05 05:03:54;;;;;;;10.90;5.70;;;;;;;1.32;72.79;99545.80;79114;1298;3011663;-67
2023/02/05 05:06:21;;;;;;;9.20;4.70;;;;;;;1.28;72.70;99547.60;77966;1300;3028224;-65
2023/02/05 05:08:48;;;;;;;9.80;5.20;;;;;;;1.14;72.56;99550.65;79248;1300;3014922;-63
2023/02/05 05:11:20;;;;;;;12.80;6.00;;;;;;;1.02;73.47;99551.58;78607;1296;3013025;-66
2023/02/05 05:13:48;;;;;;;11.00;5.80;;;;;;;0.92;73.95;99549.71;79107;1300;3019000;-68
2023/02/05 05:16:15;;;;;;;10.80;5.90;;;;;;;1.00;73.77;99555.92;79124;1298;3011894;-71
2023/02/05 05:18:43;;;;;;;10.50;5.40;;;;;;;0.99;73.56;99554.74;77967;1296;3053725;-63
2023/02/05 05:21:10;;;;;;;11.40;5.70;;;;;;;1.06;73.34;99557.38;79479;1300;3012873;-60
2023/02/05 05:23:36;;;;;;;11.80;5.70;;;;;;;0.97;73.18;99561.16;79277;1301;3012835;-64
2023/02/05 05:26:08;;;;;;;11.90;5.50;;;;;;;0.98;73.34;99558.21;77883;1300;3028022;-62
2023/02/05 05:28:35;;;;;;;11.60;5.80;;;;;;;0.92;73.54;99560.05;79004;1300;3013587;-63
2023/02/05 05:31:12;;;;;;;9.00;5.50;;;;;;;0.93;74.15;99564.17;77863;1300;3028414;-65
2023/02/05 05:33:40;;;;;;;9.60;5.00;;;;;;;0.98;73.67;99564.42;77911;1297;3049995;-61
2023/02/05 05:36:07;;;;;;;12.00;5.80;;;;;;;1.02;73.72;99565.21;79123;1297;3012969;-66
2023/02/05 05:38:34;;;;;;;12.50;6.30;;;;;;;1.01;73.65;99567.13;79135;1300;3012504;-66
2023/02/05 05:43:49;;;;;;;12.10;6.10;;;;;;;1.07;73.35;99575.45;77916;1301;3068845;-63
2023/02/05 05:46:21;;;;;;;11.00;5.40;;;;;;;1.05;73.26;99579.48;79217;1297;3012835;-63
2023/02/05 05:48:50;;;;;;;9.80;5.40;;;;;;;1.06;73.09;99582.56;77911;1298;3048220;-62
2023/02/05 05:51:17;;;;;;;10.20;5.90;;;;;;;1.07;73.04;99584.61;79259;1304;3013412;-61
2023/02/05 05:53:44;;;;;;;10.40;5.80;;;;;;;1.05;72.83;99585.86;79258;1300;3011499;-67
2023/02/05 05:56:12;;;;;;;12.20;5.50;;;;;;;1.03;72.98;99593.14;77965;1300;3050833;-66
2023/02/05 05:58:39;;;;;;;11.40;5.20;;;;;;;1.08;73.07;99591.30;79291;1300;3013822;-64
2023/02/05 06:01:06;;;;;;;9.30;5.40;;;;;;;1.06;72.71;99593.61;79086;1298;3011576;-68
2023/02/05 06:03:34;;;;;;;11.50;5.70;;;;;;;1.09;72.59;99592.67;77943;1300;3049380;-64
2023/02/05 06:06:02;;;;;;;9.50;5.50;;;;;;;1.22;72.52;99595.71;79326;1300;3018370;-70
2023/02/05 06:08:29;;;;;;;11.20;6.10;;;;;;;1.19;71.75;99594.71;79131;1300;3011620;-63
2023/02/05 06:10:57;;;;;;;11.50;6.10;;;;;;;1.15;71.61;99601.86;77965;1300;3051937;-64
2023/02/05 06:13:24;;;;;;;12.90;6.20;;;;;;;1.14;71.96;99598.60;79085;1300;3011891;-65
2023/02/05 06:15:53;;;;;;;11.00;6.20;;;;;;;1.19;71.84;99601.28;79253;1301;3011585;-73
2023/02/05 06:18:24;;;;;;;10.90;5.50;;;;;;;1.16;71.53;99600.31;78142;1300;3049102;-70
2023/02/05 06:20:50;;;;;;;9.80;5.60;;;;;;;1.17;71.68;99604.75;79204;1300;3013519;-68
2023/02/05 06:23:17;;;;;;;9.90;5.90;;;;;;;1.27;71.64;99606.14;79351;1300;3011625;-60
2023/02/05 06:25:45;;;;;;;9.80;5.50;;;;;;;1.25;71.48;99608.40;77902;1296;3028938;-64
2023/02/05 06:28:11;;;;;;;11.70;5.80;;;;;;;1.26;71.51;99612.86;79199;1300;3013572;-64
2023/02/05 06:30:39;;;;;;;9.70;5.30;;;;;;;1.35;71.34;99618.03;79288;1298;3012013;-63
2023/02/05 06:33:06;;;;;;;8.90;5.40;;;;;;;1.43;71.01;99622.52;77936;1300;3049871;-63
2023/02/05 06:35:33;;;;;;;9.70;5.00;;;;;;;1.44;70.78;99627.86;79244;1297;3013276;-62
2023/02/05 06:38:00;;;;;;;11.50;5.80;;;;;;;1.32;71.06;99631.39;79158;1300;3013087;-65
2023/02/05 06:40:28;;;;;;;9.80;5.60;;;;;;;1.33;70.77;99636.54;77942;1300;3030847;-64
2023/02/05 06:42:55;;;;;;;8.70;5.20;;;;;;;1.36;70.46;99638.73;79312;1300;3012799;-63
2023/02/05 06:45:22;;;;;;;9.40;5.60;;;;;;;1.34;70.41;99643.27;79134;1300;3013334;-64
2023/02/05 06:47:52;;;;;;;10.70;5.80;;;;;;;1.30;70.86;99641.95;77955;1300;3028774;-66
2023/02/05 06:50:19;;;;;;;11.40;5.90;;;;;;;1.25;71.12;99643.10;79178;1299;3011923;-64
2023/02/05 06:52:50;;;;;;;10.00;5.80;;;;;;;1.20;71.27;99641.81;78644;1300;3014002;-63
2023/02/05 06:55:17;;;;;;;15.00;6.40;;;;;;;1.22;71.72;99646.60;79151;1302;3013396;-64
2023/02/05 06:57:43;;;;;;;10.80;5.90;;;;;;;1.31;71.27;99645.90;79161;1301;3011598;-66
2023/02/05 07:00:12;;;;;;;10.90;5.90;;;;;;;1.34;70.49;99643.44;77928;1300;3053299;-64
2023/02/05 07:02:39;;;;;;;10.20;5.40;;;;;;;1.31;70.68;99645.21;79535;1297;3014671;-65
2023/02/05 07:05:06;;;;;;;10.30;5.90;;;;;;;1.36;70.61;99650.13;79097;1298;3013961;-65
2023/02/05 07:07:34;;;;;;;10.70;5.90;;;;;;;1.31;70.38;99650.22;77960;1300;3050018;-61
2023/02/05 07:10:01;;;;;;;11.20;6.20;;;;;;;1.38;71.04;99648.88;79193;1300;3013454;-63
2023/02/05 07:12:28;;;;;;;10.80;6.10;;;;;;;1.37;70.62;99654.41;79194;1300;3011912;-67
2023/02/05 07:14:56;;;;;;;12.50;6.40;;;;;;;1.34;70.53;99655.69;78011;1298;3051221;-66
2023/02/05 07:17:23;;;;;;;12.70;6.20;;;;;;;1.36;70.61;99657.55;79297;1300;3011495;-65
2023/02/05 07:19:49;;;;;;;14.00;6.20;;;;;;;1.34;70.43;99658.27;79206;1300;3011600;-71
2023/02/05 07:22:18;;;;;;;13.30;6.30;;;;;;;1.38;70.33;99663.03;78198;1300;3049445;-68
2023/02/05 07:24:45;;;;;;;10.00;5.80;;;;;;;1.48;70.24;99656.09;79195;1300;3015086;-68
2023/02/05 07:27:12;;;;;;;11.40;6.50;;;;;;;1.47;69.40;99657.48;79086;1300;3013587;-64
2023/02/05 07:29:40;;;;;;;13.50;7.10;;;;;;;1.54;69.61;99649.75;77897;1300;3051593;-65
2023/02/05 07:32:06;;;;;;;14.30;6.60;;;;;;;1.56;69.16;99656.80;79207;1296;3013580;-67
2023/02/05 07:34:33;;;;;;;11.60;6.60;;;;;;;1.54;68.96;99654.25;79216;1300;3013324;-63
2023/02/05 07:37:01;;;;;;;11.20;6.30;;;;;;;1.66;68.81;99654.36;77990;1300;3028307;-65
2023/02/05 07:39:27;;;;;;;11.10;5.60;;;;;;;1.60;68.93;99657.41;79290;1300;3012800;-66
2023/02/05 07:41:54;;;;;;;12.70;6.70;;;;;;;1.54;69.24;99653.38;79126;1300;3011769;-65
2023/02/05 07:44:27;;;;;;;11.50;6.00;;;;;;;1.55;69.48;99651.47;78005;1300;3052106;-65
2023/02/05 07:46:54;;;;;;;13.90;6.60;;;;;;;1.50;69.39;99652.77;79148;1300;3013066;-68
2023/02/05 07:49:20;;;;;;;13.80;6.70;;;;;;;1.35;70.19;99654.28;79103;1300;3011715;-63
2023/02/05 07:51:48;;;;;;;12.10;7.10;;;;;;;1.41;70.57;99656.42;77911;1300;3029201;-68
2023/02/05 07:54:15;;;;;;;12.80;6.80;;;;;;;1.37;70.51;99658.05;79414;1300;3013538;-68
2023/02/05 07:56:42;;;;;;;14.50;7.00;;;;;;;1.39;70.15;99657.67;79303;1300;3011870;-68
2023/02/05 07:59:10;;;;;;;10.70;5.90;;;;;;;1.33;70.40;99658.46;78034;1296;3025569;-65
2023/02/05 08:01:37;;;;;;;11.50;6.20;;;;;;;1.39;70.59;99659.04;79167;1298;3013880;-68
2023/02/05 08:04:03;;;;;;;10.40;6.30;;;;;;;1.61;69.93;99657.39;79178;1298;3011788;-63
2023/02/05 08:06:32;;;;;;;13.00;7.10;;;;;;;1.64;68.84;99660.08;78031;1300;3049264;-66
2023/02/05 08:08:59;;;;;;;12.40;6.20;;;;;;;1.59;68.63;99662.95;79295;1300;3013124;-64
2023/02/05 08:11:25;;;;;;;12.70;6.90;;;;;;;1.59;68.77;99661.92;79365;1301;3011663;-64
2023/02/05 08:13:56;;;;;;;12.60;6.80;;;;;;;1.57;68.90;99666.11;78208;1300;3051473;-65
2023/02/05 08:16:24;;;;;;;10.80;6.40;;;;;;;1.55;68.98;99667.52;79385;1298;3013067;-65
2023/02/05 08:18:51;;;;;;;12.70;6.40;;;;;;;1.63;68.51;99667.89;79202;1297;3012109;-68
2023/02/05 08:21:20;;;;;;;12.00;6.70;;;;;;;1.65;68.70;99665.59;77973;1300;3051000;-66
2023/02/05 08:23:48;;;;;;;12.00;6.50;;;;;;;1.72;68.04;99669.25;79286;1300;3011820;-64
2023/02/05 08:26:17;;;;;;;14.10;7.50;;;;;;;1.67;67.82;99666.58;78845;1297;3011982;-72
2023/02/05 08:28:44;;;;;;;17.20;9.40;;;;;;;1.63;67.91;99668.73;79393;1300;3013207;-63
2023/02/05 08:31:15;;;;;;;17.90;9.20;;;;;;;1.64;68.04;99671.30;79156;1301;3011574;-67
2023/02/05 08:33:45;;;;;;;17.70;9.10;;;;;;;1.64;67.08;99674.77;78005;1298;3049617;-67
2023/02/05 08:36:12;;;;;;;18.60;9.30;;;;;;;1.66;66.09;99677.48;79308;1297;3012912;-65
2023/02/05 08:38:39;;;;;;;19.00;8.40;;;;;;;1.65;65.95;99679.75;79158;1300;3011825;-67
2023/02/05 08:41:11;;;;;;;16.60;8.90;;;;;;;1.66;65.68;99679.90;77871;1300;3051919;-66
2023/02/05 08:43:42;;;;;;;16.40;8.60;;;;;;;1.45;64.82;99679.30;79260;1300;3011289;-67
2023/02/05 08:46:11;;;;;;;15.20;7.60;;;;;;;1.41;64.28;99684.90;77983;1300;3050517;-65
2023/02/05 08:48:38;;;;;;;12.90;7.20;;;;;;;1.50;63.46;99678.68;79216;1298;3013203;-69
2023/02/05 08:51:04;;;;;;;12.10;7.10;;;;;;;1.60;63.74;99681.92;79228;1299;3011626;-63
2023/02/05 08:53:33;;;;;;;10.30;6.20;;;;;;;1.58;63.47;99683.86;77949;1300;3050442;-66
2023/02/05 08:56:00;;;;;;;12.80;7.40;;;;;;;1.45;64.33;99688.27;79197;1300;3013035;-64
2023/02/05 08:58:27;;;;;;;13.60;7.90;;;;;;;1.37;65.23;99685.84;79296;1300;3011853;-63
2023/02/05 09:01:15;;;;;;;14.10;7.80;;;;;;;1.28;65.60;99683.94;77864;1297;3052892;-64
2023/02/05 09:03:44;;;;;;;14.60;6.90;;;;;;;1.11;64.97;99679.59;77930;1300;3056055;-64
2023/02/05 09:06:12;;;;;;;13.20;6.80;;;;;;;1.15;64.86;99681.60;79215;1300;3011559;-65
2023/02/05 09:08:41;;;;;;;11.50;6.30;;;;;;;1.25;64.34;99684.50;78573;1298;3011628;-62
2023/02/05 09:11:08;;;;;;;11.40;5.80;;;;;;;1.27;64.19;99686.55;79279;1300;3012946;-65
2023/02/05 09:13:34;;;;;;;11.70;6.20;;;;;;;1.31;63.49;99684.21;79143;1301;3011537;-65
2023/02/05 09:16:03;;;;;;;10.00;6.20;;;;;;;1.39;63.12;99681.99;77888;1300;3026760;-64
2023/02/05 09:18:30;;;;;;;14.20;6.90;;;;;;;1.47;63.19;99680.46;79298;1297;3013075;-70
2023/02/05 09:20:57;;;;;;;9.90;5.70;;;;;;;1.57;62.34;99684.23;79115;1297;3011551;-69
2023/02/05 09:23:24;;;;;;;11.40;6.40;;;;;;;1.36;62.16;99687.41;77907;1298;3052995;-64
2023/02/05 09:25:51;;;;;;;11.00;5.60;;;;;;;1.44;62.16;99686.91;79436;1300;3020623;-66
2023/02/05 09:28:18;;;;;;;13.10;7.00;;;;;;;1.53;62.19;99691.73;79182;1300;3013391;-65
2023/02/05 09:30:46;;;;;;;9.60;5.20;;;;;;;1.34;61.57;99692.79;77979;1297;3028586;-69
2023/02/05 09:33:13;;;;;;;8.70;5.30;;;;;;;1.46;61.02;99693.25;79119;1298;3021380;-67
2023/02/05 09:35:39;;;;;;;9.70;5.80;;;;;;;1.50;61.14;99693.87;79134;1300;3013284;-67
2023/02/05 09:38:08;;;;;;;13.10;6.20;;;;;;;1.52;61.49;99697.61;78010;1300;3028534;-66
2023/02/05 09:40:38;;;;;;;10.70;6.40;;;;;;;1.40;62.52;99695.44;79349;1303;3020483;-66
2023/02/05 09:43:31;;;;;;;10.70;5.90;;;;;;;1.43;62.86;99700.23;78271;1300;3051324;-64
2023/02/05 09:46:13;;;;;;;11.10;6.10;;;;;;;1.30;63.19;99699.42;77927;1300;3069373;-68
2023/02/05 09:48:54;;;;;;;10.90;6.20;;;;;;;1.29;63.15;99698.92;77994;1300;3052365;-69
2023/02/05 09:51:49;;;;;;;10.60;5.80;;;;;;;1.24;63.00;99700.40;77871;1300;3057357;-69
2023/02/05 09:54:41;;;;;;;12.60;7.10;;;;;;;1.13;63.33;99696.65;77866;1297;3048804;-70
2023/02/05 09:57:16;;;;;;;10.10;6.50;;;;;;;1.20;63.67;99690.81;77856;1300;3054588;-64
2023/02/05 09:59:45;;;;;;;12.00;6.10;;;;;;;1.30;63.06;99693.91;78560;1304;3011697;-68
2023/02/05 10:02:16;;;;;;;16.80;7.30;;;;;;;1.26;63.00;99690.00;79060;1298;3014879;-65
2023/02/05 10:04:44;;;;;;;11.90;7.20;;;;;;;1.13;63.07;99689.02;78019;1300;3051957;-66
2023/02/05 10:07:17;;;;;;;11.30;6.20;;;;;;;1.20;63.39;99690.12;79202;1297;3018307;-65
2023/02/05 10:09:58;;;;;;;12.10;6.90;;;;;;;1.44;62.48;99688.45;77988;1300;3056073;-65
2023/02/05 10:12:42;;;;;;;10.90;5.80;;;;;;;1.46;61.43;99685.98;77915;1303;3049797;-66
2023/02/05 10:15:13;;;;;;;11.10;5.60;;;;;;;1.68;60.98;99680.55;78365;1297;3054579;-67
2023/02/05 10:17:59;;;;;;;9.60;5.80;;;;;;;1.75;60.40;99680.95;79613;1301;3011470;-64
2023/02/05 10:20:42;;;;;;;11.10;6.30;;;;;;;1.68;59.33;99684.88;77961;1302;3051997;-65
2023/02/05 10:23:40;;;;;;;10.00;5.80;;;;;;;1.62;59.51;99687.92;78124;1300;3052119;-68
2023/02/05 10:26:12;;;;;;;12.10;6.30;;;;;;;1.57;59.80;99685.77;77943;1300;3069581;-69
2023/02/05 10:29:04;;;;;;;9.70;6.10;;;;;;;1.58;59.58;99686.96;79447;1298;3011782;-68
2023/02/05 10:31:36;;;;;;;10.70;5.70;;;;;;;1.70;59.08;99685.70;78068;1300;3056524;-65
2023/02/05 10:34:24;;;;;;;9.90;6.50;;;;;;;1.72;59.68;99684.27;79317;1300;3012094;-70
2023/02/05 10:36:52;;;;;;;14.30;7.40;;;;;;;1.83;59.35;99690.59;78208;1299;3053764;-73
2023/02/05 10:39:21;;;;;;;12.40;6.50;;;;;;;1.74;58.88;99691.48;79401;1303;3013785;-68
2023/02/05 10:42:05;;;;;;;8.70;5.60;;;;;;;1.48;59.69;99689.93;77939;1301;3053027;-66
2023/02/05 10:44:45;;;;;;;11.10;6.10;;;;;;;1.30;59.94;99697.88;77963;1300;3069469;-69
2023/02/05 10:47:17;;;;;;;10.30;6.40;;;;;;;0.97;60.75;99697.80;78009;1300;3052284;-71
2023/02/05 10:50:02;;;;;;;12.00;6.30;;;;;;;0.95;61.30;99698.69;79107;1298;3013234;-68
2023/02/05 10:52:29;;;;;;;11.00;6.10;;;;;;;0.91;61.60;99700.65;78128;1302;3049254;-64
2023/02/05 10:54:56;;;;;;;9.30;5.70;;;;;;;0.94;61.77;99702.49;79065;1304;3013003;-66
2023/02/05 10:57:23;;;;;;;13.30;7.10;;;;;;;0.69;62.50;99702.56;79188;1301;3011710;-63
2023/02/05 10:59:54;;;;;;;10.80;6.00;;;;;;;0.73;63.00;99702.50;78087;1308;3026424;-69
2023/02/05 11:02:21;;;;;;;9.00;5.60;;;;;;;0.88;62.65;99703.64;79421;1298;3011460;-68
2023/02/05 11:05:28;;;;;;;12.20;5.60;;;;;;;0.88;62.20;99704.16;78765;1302;3011768;-67
2023/02/05 11:07:57;;;;;;;12.30;6.70;;;;;;;0.72;62.76;99705.46;77739;1303;3056046;-64
2023/02/05 11:10:31;;;;;;;13.10;5.80;;;;;;;0.91;62.63;99702.04;79255;1299;3013465;-69
2023/02/05 11:13:20;;;;;;;11.20;6.00;;;;;;;0.97;62.54;99709.68;77826;1300;3049827;-72
2023/02/05 11:15:58;;;;;;;12.50;5.70;;;;;;;0.94;62.26;99703.20;77810;1300;3053311;-66
2023/02/05 11:18:53;;;;;;;12.50;6.30;;;;;;;0.98;62.60;99702.77;77949;1301;3052869;-67
2023/02/05 11:21:21;;;;;;;11.50;6.00;;;;;;;0.99;62.36;99698.10;78029;1301;3069051;-68
2023/02/05 11:23:56;;;;;;;14.80;7.30;;;;;;;0.86;62.92;99703.67;77715;1302;3055447;-63
2023/02/05 11:26:25;;;;;;;11.80;6.40;;;;;;;0.70;63.63;99702.72;77946;1300;3050240;-67
2023/02/05 11:28:51;;;;;;;10.50;6.00;;;;;;;0.61;64.29;99701.48;79207;1302;3015806;-70
2023/02/05 11:31:22;;;;;;;11.10;6.20;;;;;;;0.62;64.27;99699.23;79617;1298;3013125;-68
2023/02/05 11:34:06;;;;;;;12.40;6.40;;;;;;;0.58;64.58;99702.23;77948;1304;3051559;-65
2023/02/05 11:36:36;;;;;;;14.00;7.20;;;;;;;0.66;64.55;99706.94;77937;1297;3068920;-64